Time;durP1;ratioP1;P1;durP2;ratioP2;P2;SDS_P1;SDS_P2;PMS_P1;PMS_P2;Temp;Humidity;BMP_temperature;BMP_pressure;BME280_temperature;BME280_humidity;BME280_pressure;Samples;Min_cycle;Max_cycle;Signal;HPM_P1;HPM_P2
2021/11/03 00:01:38;;;;;;;5.17;4.80;;;4.40;99.90;;;5.06;100.00;96588.47;5165381;28;20230;-57
2021/11/03 00:04:12;;;;;;;5.30;5.00;;;4.30;99.90;;;5.19;100.00;96598.50;5164932;28;20211;-56
2021/11/03 00:06:45;;;;;;;4.80;4.50;;;4.40;99.90;;;5.24;100.00;96591.19;5165974;28;20203;-57
2021/11/03 00:09:19;;;;;;;4.63;4.33;;;4.50;99.90;;;5.28;100.00;96588.03;5158550;28;20627;-58
2021/11/03 00:11:55;;;;;;;4.60;4.30;;;4.50;99.90;;;5.26;100.00;96583.66;5162742;28;20250;-57
2021/11/03 00:14:29;;;;;;;4.57;4.33;;;4.50;99.90;;;5.32;100.00;96592.50;5165501;28;20512;-56
2021/11/03 00:17:02;;;;;;;5.67;5.27;;;4.50;99.90;;;5.40;100.00;96588.72;5161799;28;20215;-56
2021/11/03 00:19:35;;;;;;;7.10;6.50;;;4.60;99.90;;;5.48;100.00;96590.81;5161886;28;20652;-58
2021/11/03 00:22:08;;;;;;;6.60;6.00;;;4.50;99.90;;;5.43;100.00;96588.88;5161715;28;20218;-58
2021/11/03 00:24:44;;;;;;;6.43;5.83;;;4.50;99.90;;;5.41;100.00;96585.41;5164529;28;20199;-58
2021/11/03 00:27:18;;;;;;;7.07;6.37;;;4.40;99.90;;;5.32;100.00;96584.91;5160574;28;20666;-57
2021/11/03 00:29:55;;;;;;;5.40;4.93;;;4.40;99.90;;;5.28;100.00;96588.03;5167127;28;20206;-58
2021/11/03 00:32:29;;;;;;;4.90;4.50;;;4.40;99.90;;;5.15;100.00;96580.50;5164837;28;20229;-57
2021/11/03 00:35:02;;;;;;;4.90;4.43;;;4.30;99.90;;;5.12;100.00;96591.38;5162535;28;20334;-58
2021/11/03 00:37:35;;;;;;;5.10;4.70;;;4.40;99.90;;;5.25;100.00;96587.00;5164009;28;20298;-56
2021/11/03 00:40:12;;;;;;;4.73;4.43;;;4.40;99.90;;;5.23;100.00;96579.28;5162318;28;20199;-59
2021/11/03 00:42:45;;;;;;;5.23;4.70;;;4.30;99.90;;;5.24;100.00;96588.66;5160567;28;20209;-58
2021/11/03 00:45:20;;;;;;;4.83;4.53;;;4.40;99.90;;;5.29;100.00;96589.75;5167230;28;20206;-58
2021/11/03 00:47:56;;;;;;;4.87;4.47;;;4.50;99.90;;;5.31;100.00;96590.72;5166963;28;20217;-60
2021/11/03 00:50:29;;;;;;;4.60;4.20;;;4.50;99.90;;;5.20;100.00;96589.25;5164642;28;20206;-58
2021/11/03 00:53:02;;;;;;;5.70;5.30;;;4.40;99.90;;;5.24;100.00;96596.25;5165217;28;20203;-55
2021/11/03 00:55:37;;;;;;;5.13;4.73;;;4.40;99.90;;;5.26;100.00;96594.66;5168462;28;20585;-57
2021/11/03 00:58:10;;;;;;;5.97;5.43;;;4.30;99.90;;;5.16;100.00;96584.81;5162198;28;20213;-58
2021/11/03 01:00:44;;;;;;;5.33;4.93;;;4.40;99.90;;;5.20;100.00;96589.25;5164044;28;20227;-57
2021/11/03 01:03:17;;;;;;;4.80;4.50;;;4.50;99.90;;;5.21;100.00;96585.94;5165109;28;20543;-58
2021/11/03 01:05:55;;;;;;;5.10;4.70;;;4.40;99.90;;;5.25;100.00;96581.91;5165057;28;20630;-60
2021/11/03 01:08:28;;;;;;;5.23;4.93;;;4.40;99.90;;;5.35;100.00;96577.47;5164766;28;20210;-58
2021/11/03 01:11:03;;;;;;;5.13;4.83;;;4.50;99.90;;;5.37;100.00;96573.34;5172233;28;20214;-57
2021/11/03 01:13:54;;;;;;;5.83;5.33;;;4.60;99.90;;;5.35;100.00;96564.81;5163966;28;20192;-57
2021/11/03 01:16:27;;;;;;;5.20;4.80;;;4.60;99.90;;;5.41;100.00;96560.06;5166706;28;20227;-59
2021/11/03 01:19:01;;;;;;;4.90;4.60;;;4.60;99.90;;;5.47;100.00;96558.66;5167177;28;20659;-59
2021/11/03 01:21:38;;;;;;;5.17;4.77;;;4.60;99.90;;;5.48;100.00;96547.75;5166534;28;20593;-59
2021/11/03 01:24:11;;;;;;;5.13;4.73;;;4.60;99.90;;;5.43;100.00;96542.41;5167324;28;20673;-56
2021/11/03 01:26:46;;;;;;;5.00;4.70;;;4.70;99.90;;;5.51;100.00;96540.31;5164548;28;20200;-58
2021/11/03 01:29:19;;;;;;;6.00;5.60;;;4.60;99.90;;;5.46;100.00;96534.97;5164896;28;20581;-58
2021/11/03 01:31:52;;;;;;;6.20;5.60;;;4.50;99.90;;;5.37;100.00;96527.75;5167453;28;20223;-56
2021/11/03 01:34:25;;;;;;;5.83;5.43;;;4.50;99.90;;;5.37;100.00;96522.66;5169795;28;20198;-59
2021/11/03 01:36:58;;;;;;;6.13;5.70;;;4.50;99.90;;;5.34;100.00;96508.97;5161106;28;20597;-56
2021/11/03 01:39:32;;;;;;;6.87;6.27;;;4.50;99.90;;;5.39;100.00;96525.31;5167492;28;20209;-58
2021/11/03 01:42:07;;;;;;;6.30;5.80;;;4.50;99.90;;;5.45;100.00;96524.75;5168300;28;20740;-58
2021/11/03 01:44:40;;;;;;;6.83;6.33;;;4.50;99.90;;;5.31;100.00;96524.00;5169526;28;20244;-59
2021/11/03 01:47:46;;;;;;;6.50;6.00;;;4.40;99.90;;;5.39;100.00;96521.09;5165927;28;20278;-57
2021/11/03 01:50:28;;;;;;;6.50;6.00;;;4.40;99.90;;;5.37;100.00;96516.72;5161800;28;20199;-60
2021/11/03 01:53:09;;;;;;;6.70;6.00;;;4.40;99.90;;;5.41;100.00;96522.06;5166060;28;20210;-57
2021/11/03 01:55:47;;;;;;;6.13;5.70;;;4.60;99.90;;;5.45;100.00;96512.09;5166001;28;20210;-57
2021/11/03 01:58:28;;;;;;;9.50;6.53;;;4.60;99.90;;;5.41;100.00;96511.94;5161155;28;20203;-57
2021/11/03 02:01:01;;;;;;;6.57;5.97;;;4.60;99.90;;;5.50;100.00;96516.63;5167521;28;20214;-57
2021/11/03 02:03:35;;;;;;;6.80;6.20;;;4.70;99.90;;;5.57;100.00;96517.81;5166643;28;20207;-58
2021/11/03 02:06:16;;;;;;;7.03;6.43;;;4.80;99.90;;;5.61;100.00;96518.09;5166971;28;20197;-57
2021/11/03 02:08:51;;;;;;;7.03;6.47;;;4.80;99.90;;;5.61;100.00;96524.81;5164402;28;20206;-59
2021/11/03 02:11:26;;;;;;;7.10;6.40;;;4.80;99.90;;;5.59;100.00;96518.78;5164770;28;20580;-57
2021/11/03 02:14:04;;;;;;;6.63;6.17;;;4.80;99.90;;;5.62;100.00;96513.88;5166952;28;20195;-57
2021/11/03 02:16:42;;;;;;;6.27;5.73;;;4.80;99.90;;;5.63;100.00;96505.47;5165618;28;20749;-57
2021/11/03 02:19:20;;;;;;;6.60;6.10;;;4.90;99.90;;;5.67;100.00;96506.53;5163950;28;20249;-58
2021/11/03 02:22:02;;;;;;;6.70;6.10;;;4.90;99.90;;;5.75;100.00;96503.63;5164622;28;20219;-58
2021/11/03 02:24:41;;;;;;;6.97;6.37;;;4.90;99.90;;;5.82;100.00;96493.00;5158757;28;20204;-58
2021/11/03 02:27:16;;;;;;;6.47;5.97;;;5.00;99.90;;;5.69;100.00;96498.19;5162817;28;20194;-59
2021/11/03 02:29:49;;;;;;;7.17;6.57;;;4.90;99.90;;;5.63;100.00;96496.19;5163162;28;20201;-57
2021/11/03 02:32:26;;;;;;;7.00;6.40;;;4.90;99.90;;;5.59;100.00;96485.84;5163054;28;20229;-57
2021/11/03 02:35:00;;;;;;;6.70;6.20;;;4.90;99.90;;;5.55;100.00;96481.38;5163335;28;20213;-59
2021/11/03 02:37:44;;;;;;;6.07;5.63;;;4.80;99.90;;;5.55;100.00;96483.91;5162622;28;20226;-55
2021/11/03 02:40:50;;;;;;;6.20;5.63;;;4.80;99.90;;;5.59;100.00;96485.84;5161855;28;20206;-55
2021/11/03 02:43:28;;;;;;;5.77;5.27;;;4.80;99.90;;;5.58;100.00;96476.47;5162959;28;20590;-57
2021/11/03 02:46:03;;;;;;;6.20;5.70;;;4.80;99.90;;;5.54;100.00;96479.66;5163273;28;20739;-58
2021/11/03 02:48:39;;;;;;;5.77;5.33;;;4.80;99.90;;;5.54;100.00;96477.13;5162805;28;20234;-55
2021/11/03 02:51:16;;;;;;;6.07;5.57;;;4.80;99.90;;;5.59;100.00;96466.44;5169086;28;20616;-56
2021/11/03 02:53:53;;;;;;;6.40;5.70;;;4.90;99.90;;;5.65;100.00;96458.28;5163719;28;20638;-57
2021/11/03 02:56:30;;;;;;;6.03;5.53;;;5.00;99.90;;;5.64;100.00;96465.03;5164270;28;20218;-59
2021/11/03 02:59:05;;;;;;;6.33;5.80;;;5.00;99.90;;;5.67;100.00;96466.84;5168372;28;20198;-57
2021/11/03 03:01:41;;;;;;;6.27;5.77;;;5.00;99.90;;;5.76;100.00;96459.72;5178081;28;20590;-56
2021/11/03 03:04:22;;;;;;;6.27;5.80;;;5.10;99.90;;;5.76;100.00;96458.84;5163172;28;20192;-57
2021/11/03 03:06:55;;;;;;;6.30;5.77;;;5.00;99.90;;;5.75;100.00;96454.56;5176287;28;20720;-55
2021/11/03 03:09:28;;;;;;;6.90;6.30;;;5.00;99.90;;;5.76;100.00;96457.19;5170371;28;20235;-55
2021/11/03 03:12:07;;;;;;;6.67;6.07;;;5.10;99.90;;;5.77;100.00;96458.06;5155281;28;20242;-58
2021/11/03 03:14:45;;;;;;;6.83;6.33;;;5.10;99.90;;;5.80;100.00;96461.63;5161354;28;20587;-55
2021/11/03 03:17:19;;;;;;;6.57;6.07;;;5.20;99.90;;;5.79;100.00;96457.34;5162442;28;20222;-56
2021/11/03 03:19:54;;;;;;;6.37;5.90;;;5.10;99.90;;;5.82;100.00;96465.13;5163124;28;20207;-57
2021/11/03 03:22:27;;;;;;;6.47;5.80;;;5.10;99.90;;;5.84;100.00;96450.84;5162075;28;20222;-54
2021/11/03 03:25:00;;;;;;;6.37;5.87;;;5.10;99.90;;;5.82;100.00;96454.09;5170409;28;20849;-58
2021/11/03 03:27:33;;;;;;;5.90;5.50;;;5.10;99.90;;;5.82;100.00;96452.44;5172131;28;20201;-56
2021/11/03 03:30:08;;;;;;;6.23;5.53;;;5.10;99.90;;;5.80;100.00;96454.00;5162646;28;20286;-54
2021/11/03 03:32:41;;;;;;;6.27;5.77;;;5.10;99.90;;;5.80;100.00;96443.88;5164964;28;20240;-58
2021/11/03 03:35:15;;;;;;;6.87;6.27;;;5.10;99.90;;;5.85;100.00;96454.25;5168607;28;20201;-56
2021/11/03 03:37:50;;;;;;;7.93;5.90;;;5.10;99.90;;;5.84;100.00;96450.84;5169658;28;20231;-56
2021/11/03 03:40:23;;;;;;;6.57;6.00;;;5.20;99.90;;;5.88;100.00;96450.22;5162657;28;20805;-54
2021/11/03 03:42:56;;;;;;;5.60;5.17;;;5.10;99.90;;;5.81;100.00;96444.78;5169175;28;20659;-56
2021/11/03 03:45:31;;;;;;;6.57;5.97;;;5.00;99.90;;;5.82;100.00;96441.44;5164485;28;20650;-57
2021/11/03 03:48:05;;;;;;;5.60;5.30;;;5.10;99.90;;;5.83;100.00;96438.97;5164788;28;20297;-56
2021/11/03 03:50:39;;;;;;;6.40;5.83;;;5.10;99.90;;;5.92;100.00;96433.50;5170174;28;20699;-56
2021/11/03 03:53:12;;;;;;;6.13;5.63;;;5.10;99.90;;;5.92;100.00;96438.56;5168341;28;20218;-57
2021/11/03 03:55:46;;;;;;;5.83;5.43;;;5.20;99.90;;;5.90;100.00;96426.63;5166141;28;20725;-58
2021/11/03 03:58:20;;;;;;;5.90;5.50;;;5.10;99.90;;;5.92;100.00;96422.47;5160545;28;20229;-56
2021/11/03 04:00:54;;;;;;;5.87;5.47;;;5.10;99.90;;;5.88;100.00;96426.53;5162983;28;20329;-55
2021/11/03 04:03:28;;;;;;;6.50;5.80;;;5.10;99.90;;;5.89;100.00;96425.72;5162480;28;20210;-57
2021/11/03 04:06:01;;;;;;;5.77;5.27;;;5.20;99.90;;;5.89;100.00;96425.72;5164204;28;20710;-58
2021/11/03 04:08:34;;;;;;;5.80;5.30;;;5.20;99.90;;;5.94;100.00;96415.88;5166314;28;20290;-56
2021/11/03 04:11:08;;;;;;;5.80;5.30;;;5.20;99.90;;;5.98;100.00;96427.91;5162706;28;20250;-57
2021/11/03 04:13:43;;;;;;;5.90;5.50;;;5.20;99.90;;;6.03;100.00;96421.41;5165155;28;20269;-56
2021/11/03 04:16:17;;;;;;;6.17;5.57;;;5.30;99.90;;;6.04;100.00;96423.16;5160588;28;20286;-57
2021/11/03 04:18:50;;;;;;;6.17;5.73;;;5.30;99.90;;;6.11;100.00;96426.88;5165586;28;20214;-54
2021/11/03 04:21:24;;;;;;;5.57;5.07;;;5.40;99.90;;;6.16;100.00;96427.97;5164115;28;20222;-56
2021/11/03 04:24:18;;;;;;;6.40;5.80;;;5.50;99.90;;;6.16;100.00;96428.84;5164315;28;20199;-57
2021/11/03 04:26:51;;;;;;;6.20;5.70;;;5.40;99.90;;;6.20;100.00;96425.66;5158298;28;20737;-55
2021/11/03 04:29:25;;;;;;;6.17;5.67;;;5.50;99.90;;;6.24;100.00;96430.09;5162216;28;20211;-57
2021/11/03 04:31:59;;;;;;;6.87;5.93;;;5.50;99.90;;;6.26;100.00;96435.25;5160100;28;20238;-60
2021/11/03 04:34:32;;;;;;;5.90;5.40;;;5.50;99.90;;;6.33;100.00;96419.56;5162442;28;20199;-58
2021/11/03 04:37:06;;;;;;;5.63;5.23;;;5.50;99.90;;;6.32;100.00;96423.75;5161397;28;20305;-54
2021/11/03 04:39:40;;;;;;;6.70;6.20;;;5.50;99.90;;;6.34;100.00;96422.94;5162466;28;20565;-57
2021/11/03 04:42:13;;;;;;;5.77;5.27;;;5.50;99.90;;;6.34;100.00;96412.81;5163779;28;20223;-57
2021/11/03 04:44:46;;;;;;;6.83;6.20;;;5.60;99.90;;;6.30;100.00;96410.13;5158665;28;20205;-57
2021/11/03 04:47:21;;;;;;;6.60;6.00;;;5.50;99.90;;;6.26;100.00;96423.44;5164846;28;20243;-55
2021/11/03 04:49:57;;;;;;;5.87;5.47;;;5.50;99.90;;;6.25;100.00;96416.63;5165300;28;20203;-58
2021/11/03 04:52:30;;;;;;;6.07;5.57;;;5.50;99.90;;;6.31;100.00;96424.53;5164390;28;20696;-56
2021/11/03 04:55:05;;;;;;;6.63;6.03;;;5.50;99.90;;;6.31;100.00;96423.66;5172742;28;20229;-56
2021/11/03 04:57:39;;;;;;;6.63;6.00;;;5.50;99.90;;;6.31;100.00;96433.81;5171934;28;20253;-59
2021/11/03 05:00:23;;;;;;;5.90;5.30;;;5.50;99.90;;;6.35;100.00;96420.47;5174727;28;20194;-59
2021/11/03 05:02:58;;;;;;;6.33;5.83;;;5.60;99.90;;;6.37;100.00;96408.75;5167679;28;20203;-59
2021/11/03 05:05:31;;;;;;;6.80;6.27;;;5.60;99.90;;;6.39;100.00;96416.44;5178363;28;20707;-58
2021/11/03 05:08:05;;;;;;;6.70;6.10;;;5.60;99.90;;;6.36;100.00;96404.47;5174830;28;20201;-58
2021/11/03 05:10:39;;;;;;;7.60;6.83;;;5.60;99.90;;;6.46;100.00;96393.09;5166900;28;20219;-56
2021/11/03 05:13:12;;;;;;;7.23;6.63;;;5.50;99.90;;;6.38;100.00;96402.00;5177896;28;20651;-56
2021/11/03 05:15:45;;;;;;;6.73;6.13;;;5.50;99.90;;;6.37;100.00;96402.81;5163282;28;20211;-57
2021/11/03 05:18:20;;;;;;;7.10;6.07;;;5.50;99.90;;;6.41;100.00;96384.38;5167520;28;20223;-57
2021/11/03 05:20:53;;;;;;;5.87;5.33;;;5.60;99.90;;;6.39;100.00;96375.84;5163367;28;20240;-59
2021/11/03 05:23:27;;;;;;;6.03;5.43;;;5.60;99.90;;;6.39;100.00;96360.63;5170125;28;20628;-60
2021/11/03 05:26:00;;;;;;;5.90;5.40;;;5.60;99.90;;;6.42;100.00;96358.22;5173714;28;20215;-58
2021/11/03 05:28:37;;;;;;;5.33;4.93;;;5.60;99.90;;;6.52;100.00;96363.81;5163657;28;20204;-59
2021/11/03 05:31:10;;;;;;;6.43;5.90;;;5.60;99.90;;;6.47;100.00;96365.28;5165485;28;20336;-59
2021/11/03 05:33:45;;;;;;;5.70;5.30;;;5.60;99.90;;;6.49;100.00;96357.72;5172626;28;20643;-57
2021/11/03 05:36:20;;;;;;;7.40;5.77;;;5.60;99.90;;;6.47;100.00;96359.31;5165795;28;20210;-57
2021/11/03 05:38:54;;;;;;;5.73;5.23;;;5.60;99.90;;;6.45;100.00;96360.91;5168538;28;20226;-57
2021/11/03 05:41:28;;;;;;;5.90;5.40;;;5.60;99.90;;;6.39;100.00;96355.53;5164338;28;20237;-57
2021/11/03 05:44:01;;;;;;;5.93;5.30;;;5.60;99.90;;;6.42;100.00;96360.75;5168067;28;20615;-59
2021/11/03 05:46:38;;;;;;;6.17;5.77;;;5.60;99.90;;;6.39;100.00;96356.41;5165895;28;20199;-57
2021/11/03 05:49:17;;;;;;;6.53;6.03;;;5.60;99.90;;;6.40;100.00;96365.75;5161934;28;20245;-59
2021/11/03 05:51:57;;;;;;;7.03;6.47;;;5.70;99.90;;;6.43;100.00;96372.66;5167307;28;20218;-57
2021/11/03 05:54:30;;;;;;;6.70;6.10;;;5.60;99.90;;;6.45;100.00;96366.00;5168190;28;20199;-59
2021/11/03 05:57:04;;;;;;;7.13;6.53;;;5.60;99.90;;;6.45;100.00;96355.84;5159512;28;20205;-59
2021/11/03 05:59:37;;;;;;;8.67;7.77;;;5.60;99.90;;;6.41;100.00;96348.84;5161419;28;20226;-59
2021/11/03 06:02:10;;;;;;;6.77;6.17;;;5.60;99.90;;;6.43;100.00;96342.19;5165084;28;20218;-56
2021/11/03 06:04:45;;;;;;;6.63;6.13;;;5.60;99.90;;;6.41;100.00;96339.59;5179955;28;20617;-55
2021/11/03 06:07:21;;;;;;;6.60;6.00;;;5.60;99.90;;;6.42;100.00;96326.09;5178539;28;20579;-59
2021/11/03 06:10:02;;;;;;;7.23;6.70;;;5.60;99.90;;;6.44;100.00;96323.63;5177471;28;20264;-59
2021/11/03 06:12:35;;;;;;;7.40;6.80;;;5.60;99.90;;;6.57;100.00;96325.09;5163347;28;20233;-56
2021/11/03 06:15:09;;;;;;;9.33;8.43;;;5.60;99.90;;;6.48;100.00;96300.16;5165491;28;20206;-58
2021/11/03 06:17:42;;;;;;;9.37;8.67;;;5.50;99.90;;;6.38;100.00;96305.56;5164166;28;20209;-56
2021/11/03 06:20:16;;;;;;;8.73;8.03;;;5.50;99.90;;;6.34;100.00;96308.78;5162587;28;20206;-57
2021/11/03 06:22:50;;;;;;;9.50;8.60;;;5.40;99.90;;;6.32;100.00;96308.69;5166509;28;20221;-58
2021/11/03 06:25:25;;;;;;;7.50;6.90;;;5.50;99.90;;;6.31;100.00;96306.97;5170424;28;20194;-54
2021/11/03 06:27:59;;;;;;;9.10;8.40;;;5.50;99.90;;;6.33;100.00;96295.22;5164853;28;20290;-58
2021/11/03 06:30:35;;;;;;;6.63;6.07;;;5.50;99.90;;;6.39;100.00;96294.66;5164408;28;20202;-56
2021/11/03 06:33:08;;;;;;;6.03;5.53;;;5.50;99.90;;;6.37;100.00;96292.03;5172020;28;20290;-54
2021/11/03 06:35:45;;;;;;;6.67;6.17;;;5.50;99.90;;;6.37;100.00;96289.47;5167109;28;20203;-58
2021/11/03 06:38:18;;;;;;;6.60;6.00;;;5.50;99.90;;;6.40;100.00;96296.38;5163102;28;20219;-57
2021/11/03 06:40:53;;;;;;;5.60;5.20;;;5.60;99.90;;;6.40;100.00;96294.69;5168137;28;20238;-62
2021/11/03 06:43:27;;;;;;;6.37;5.87;;;5.60;99.90;;;6.44;100.00;96283.03;5166739;28;20694;-62
2021/11/03 06:46:00;;;;;;;6.93;6.43;;;5.60;99.90;;;6.52;100.00;96284.25;5168600;28;20207;-59
2021/11/03 06:48:33;;;;;;;7.17;6.60;;;5.70;99.90;;;6.60;100.00;96285.47;5168448;28;20201;-60
2021/11/03 06:51:09;;;;;;;6.73;6.10;;;5.70;99.90;;;6.70;100.00;96282.59;5165512;28;20675;-59
2021/11/03 06:53:42;;;;;;;6.60;6.10;;;5.80;99.90;;;6.77;100.00;96279.50;5167799;28;20712;-60
2021/11/03 06:56:15;;;;;;;7.43;6.83;;;5.90;99.90;;;6.90;100.00;96280.09;5163252;28;20203;-59
2021/11/03 06:58:48;;;;;;;8.87;8.10;;;6.00;99.90;;;6.98;100.00;96279.63;5164334;28;20606;-61
2021/11/03 07:01:21;;;;;;;10.23;9.37;;;6.10;99.90;;;7.06;100.00;96292.66;5162382;28;20227;-60
2021/11/03 07:03:58;;;;;;;8.53;7.83;;;6.20;99.90;;;7.07;100.00;96284.25;5162830;28;20209;-61
2021/11/03 07:06:32;;;;;;;8.63;7.93;;;6.20;99.90;;;7.06;100.00;96291.81;5165190;28;20247;-59
2021/11/03 07:09:05;;;;;;;8.40;7.60;;;6.10;99.90;;;7.05;100.00;96292.63;5164546;28;20285;-61
2021/11/03 07:11:39;;;;;;;8.33;7.63;;;6.10;99.90;;;7.00;100.00;96282.22;5162903;28;20782;-61
2021/11/03 07:14:12;;;;;;;7.93;7.30;;;6.10;99.90;;;7.03;100.00;96277.28;5162419;28;20203;-61
2021/11/03 07:16:45;;;;;;;9.57;8.67;;;6.10;99.90;;;7.07;100.00;96279.19;5162537;28;20271;-61
2021/11/03 07:19:18;;;;;;;7.87;7.27;;;6.20;99.90;;;7.09;100.00;96282.63;5161327;28;20227;-62
2021/11/03 07:21:52;;;;;;;7.13;6.53;;;6.20;99.90;;;7.14;100.00;96287.94;5158140;28;20334;-60
2021/11/03 07:24:25;;;;;;;7.30;6.70;;;6.20;99.90;;;7.11;100.00;96306.44;5159914;28;20206;-62
2021/11/03 07:26:58;;;;;;;6.90;6.40;;;6.30;99.90;;;7.19;100.00;96320.38;5164448;28;20207;-62
2021/11/03 07:29:32;;;;;;;6.83;6.27;;;6.30;99.90;;;7.27;100.00;96318.19;5160521;28;20199;-62
2021/11/03 07:32:06;;;;;;;7.40;6.70;;;6.30;99.90;;;7.29;100.00;96315.69;5159302;28;20736;-61
2021/11/03 07:34:39;;;;;;;7.20;6.60;;;6.30;99.90;;;7.32;100.00;96320.91;5159110;28;20655;-61
2021/11/03 07:37:14;;;;;;;7.33;6.73;;;6.30;99.90;;;7.31;100.00;96320.03;5168036;28;20213;-61
2021/11/03 07:39:47;;;;;;;7.37;6.77;;;6.20;99.90;;;7.35;100.00;96327.00;5167385;28;20321;-62
2021/11/03 07:42:20;;;;;;;17.40;16.10;;;6.30;99.90;;;7.33;100.00;96322.66;5159265;28;20231;-59
2021/11/03 07:44:53;;;;;;;9.10;8.30;;;6.40;99.90;;;7.32;100.00;96305.66;5164820;28;20665;-59
2021/11/03 07:47:26;;;;;;;11.33;10.10;;;6.40;99.90;;;7.28;100.00;96291.09;5161272;28;20290;-62
2021/11/03 07:50:00;;;;;;;9.00;8.10;;;6.30;99.90;;;7.34;100.00;96286.28;5161684;28;20195;-62
2021/11/03 07:52:34;;;;;;;7.40;6.80;;;6.40;99.90;;;7.39;100.00;96284.81;5169113;28;20309;-61
2021/11/03 07:55:08;;;;;;;7.93;7.23;;;6.40;99.90;;;7.40;100.00;96294.16;5159619;28;20199;-61
2021/11/03 07:57:42;;;;;;;7.87;7.17;;;6.40;99.90;;;7.37;100.00;96304.19;5159060;28;20199;-62
2021/11/03 08:00:23;;;;;;;7.43;6.73;;;6.40;99.90;;;7.43;100.00;96319.72;5158389;28;20230;-62
2021/11/03 08:02:56;;;;;;;6.67;6.17;;;6.50;99.90;;;7.46;100.00;96327.47;5157803;28;20286;-62
2021/11/03 08:05:30;;;;;;;6.73;6.13;;;6.50;99.90;;;7.44;100.00;96306.22;5166246;28;21786;-62
2021/11/03 08:08:10;;;;;;;6.17;5.60;;;6.50;99.90;;;7.57;100.00;96274.56;5167519;28;20199;-61
2021/11/03 08:10:45;;;;;;;6.93;6.33;;;6.60;99.90;;;7.69;100.00;96257.28;5168458;28;20249;-61
2021/11/03 08:13:18;;;;;;;6.17;5.77;;;6.70;99.90;;;7.84;100.00;96279.91;5162753;28;20286;-60
2021/11/03 08:15:53;;;;;;;5.63;5.23;;;6.80;99.90;;;8.00;99.41;96292.47;5170990;28;20583;-62
2021/11/03 08:18:31;;;;;;;5.90;5.50;;;6.90;99.90;;;8.06;99.41;96279.16;5169456;28;20611;-61
2021/11/03 08:21:05;;;;;;;7.73;7.03;;;7.00;99.90;;;8.17;98.44;96264.31;5168808;28;20318;-60
2021/11/03 08:23:40;;;;;;;6.77;6.17;;;7.00;99.90;;;8.17;98.73;96254.13;5166539;28;20202;-59
2021/11/03 08:26:13;;;;;;;6.90;6.30;;;7.10;99.90;;;8.11;99.30;96250.53;5164096;28;20194;-61
2021/11/03 08:28:46;;;;;;;8.73;8.03;;;7.10;99.90;;;8.12;99.71;96253.94;5164546;28;20200;-61
2021/11/03 08:31:19;;;;;;;6.97;6.47;;;7.10;99.90;;;8.16;99.32;96229.50;5170006;28;20833;-62
2021/11/03 08:33:53;;;;;;;6.67;6.07;;;7.10;99.90;;;8.20;99.20;96227.13;5166175;28;20203;-60
2021/11/03 08:36:26;;;;;;;6.97;6.37;;;7.10;99.90;;;8.23;99.12;96252.69;5169602;28;20196;-62
2021/11/03 08:39:00;;;;;;;7.60;6.97;;;7.20;99.90;;;8.24;98.81;96257.00;5164271;28;20652;-62
2021/11/03 08:41:34;;;;;;;8.30;7.50;;;7.20;99.90;;;8.30;98.06;96252.16;5160331;28;20745;-61
2021/11/03 08:44:08;;;;;;;7.67;7.07;;;7.10;99.90;;;8.31;97.47;96258.97;5163066;28;20207;-61
2021/11/03 08:46:41;;;;;;;7.40;6.90;;;7.20;99.90;;;8.27;98.18;96259.66;5166829;28;20317;-61
2021/11/03 08:49:14;;;;;;;7.43;6.83;;;7.20;99.90;;;8.21;98.28;96267.06;5164375;28;20200;-62
2021/11/03 08:51:48;;;;;;;6.57;6.07;;;7.20;99.90;;;8.25;98.87;96275.69;5163842;28;20215;-61
2021/11/03 08:54:22;;;;;;;5.93;5.43;;;7.20;99.90;;;8.30;99.14;96277.59;5164236;28;20203;-62
2021/11/03 08:57:16;;;;;;;6.30;5.90;;;7.30;99.90;;;8.40;98.99;96262.72;5160281;28;20575;-62
2021/11/03 08:59:50;;;;;;;7.93;7.23;;;7.30;99.90;;;8.44;98.46;96262.91;5164397;28;20215;-64
2021/11/03 09:02:25;;;;;;;7.97;7.27;;;7.40;99.90;;;8.50;96.92;96242.78;5165218;28;20228;-62
2021/11/03 09:04:58;;;;;;;8.60;7.80;;;7.40;99.90;;;8.52;96.87;96247.91;5158417;28;20242;-61
2021/11/03 09:07:33;;;;;;;9.33;8.43;;;7.40;99.90;;;8.62;97.30;96247.47;5161690;28;20208;-62
2021/11/03 09:10:12;;;;;;;8.67;7.87;;;7.60;99.90;;;8.74;98.03;96241.97;5183013;28;20214;-63
2021/11/03 09:12:46;;;;;;;7.80;7.00;;;7.70;99.90;;;8.83;98.52;96244.00;5170101;28;20203;-61
2021/11/03 09:15:22;;;;;;;7.17;6.67;;;7.90;99.90;;;8.94;99.09;96246.13;5169286;28;20293;-64
2021/11/03 09:17:58;;;;;;;4.50;4.20;;;7.90;99.90;;;9.09;97.90;96244.94;5173614;28;20286;-60
2021/11/03 09:20:31;;;;;;;3.87;3.67;;;8.00;99.90;;;9.18;96.79;96252.94;5169702;28;20230;-60
2021/11/03 09:23:04;;;;;;;3.42;3.22;;;8.10;99.90;;;9.19;94.08;96241.94;5164947;28;20689;-62
2021/11/03 09:25:39;;;;;;;3.00;2.80;;;8.20;99.90;;;9.31;94.80;96244.06;5168131;28;20203;-61
2021/11/03 09:28:12;;;;;;;3.15;2.95;;;8.30;99.90;;;9.44;93.84;96254.75;5169237;28;20225;-61
2021/11/03 09:30:45;;;;;;;4.13;3.75;;;8.40;99.90;;;9.53;92.75;96245.66;5170186;28;20221;-63
2021/11/03 09:33:18;;;;;;;5.75;5.25;;;8.50;99.90;;;9.59;93.34;96248.44;5170023;28;20206;-61
2021/11/03 09:35:53;;;;;;;5.65;5.20;;;8.60;99.90;;;9.63;93.50;96237.50;5157669;28;20303;-61
2021/11/03 09:38:29;;;;;;;6.13;5.63;;;8.70;99.90;;;9.70;94.42;96231.81;5164493;28;20290;-58
2021/11/03 09:41:09;;;;;;;4.50;4.10;;;8.80;99.90;;;9.78;93.80;96230.38;5160843;28;20354;-59
2021/11/03 09:43:55;;;;;;;4.38;3.92;;;8.80;99.90;;;9.75;93.28;96226.84;5169493;28;20816;-62
2021/11/03 09:46:34;;;;;;;4.03;3.20;;;8.90;99.90;;;9.78;92.67;96219.31;5162122;28;20739;-61
2021/11/03 09:49:21;;;;;;;4.65;3.50;;;8.90;99.90;;;9.92;91.94;96228.28;5159556;28;20195;-61
2021/11/03 09:52:02;;;;;;;3.75;3.47;;;9.00;99.90;;;10.05;91.25;96227.00;5156668;28;20312;-62
2021/11/03 09:54:37;;;;;;;6.03;5.43;;;9.10;99.90;;;10.14;91.64;96222.19;5155636;28;20214;-62
2021/11/03 09:57:23;;;;;;;6.53;5.85;;;9.20;99.90;;;10.20;91.25;96217.28;5155331;28;20293;-62
2021/11/03 10:00:06;;;;;;;6.20;5.60;;;9.30;99.90;;;10.16;91.39;96225.69;5181200;22;20199;-62
2021/11/03 10:02:50;;;;;;;6.85;5.88;;;9.30;99.90;;;10.17;90.69;96224.84;5199695;28;20665;-61
2021/11/03 10:05:29;;;;;;;6.47;5.45;;;9.20;99.90;;;10.12;90.93;96213.63;5205011;28;20209;-60
2021/11/03 10:08:16;;;;;;;6.43;5.55;;;9.20;99.90;;;10.11;92.27;96209.34;5202868;28;20190;-60
2021/11/03 10:10:57;;;;;;;5.40;4.85;;;9.20;99.90;;;10.14;91.86;96205.19;5196043;28;20229;-57
2021/11/03 10:13:35;;;;;;;5.35;4.95;;;9.30;99.90;;;10.22;92.57;96205.44;5177489;28;20662;-62
2021/11/03 10:16:28;;;;;;;3.63;3.30;;;9.30;99.90;;;10.23;92.03;96203.75;5181215;28;20189;-58
2021/11/03 10:19:12;;;;;;;3.63;3.30;;;9.30;99.90;;;10.34;92.10;96210.09;5181421;28;20194;-64
2021/11/03 10:21:48;;;;;;;4.50;3.30;;;9.40;99.90;;;10.39;91.37;96200.91;5175542;28;20225;-58
2021/11/03 10:24:35;;;;;;;2.92;2.70;;;9.50;99.90;;;10.47;90.38;96196.91;5175735;28;20585;-58
2021/11/03 10:27:22;;;;;;;3.20;3.00;;;9.50;99.90;;;10.55;90.20;96197.09;5174003;28;20205;-60
2021/11/03 10:30:19;;;;;;;5.75;4.78;;;9.60;99.90;;;10.68;87.42;96201.78;5173805;28;20294;-58
2021/11/03 10:32:53;;;;;;;13.10;9.65;;;9.70;99.90;;;10.70;88.70;96200.13;5179610;28;20201;-63
2021/11/03 10:35:38;;;;;;;7.70;6.90;;;9.70;99.90;;;10.72;89.12;96211.25;5172282;28;20202;-58
2021/11/03 10:38:16;;;;;;;6.18;5.68;;;9.80;99.90;;;10.74;88.39;96222.38;5178002;28;20219;-62
2021/11/03 10:40:59;;;;;;;8.85;7.95;;;9.80;99.90;;;10.74;87.84;96217.28;5172943;28;20226;-59
2021/11/03 10:43:36;;;;;;;12.95;11.60;;;9.80;99.90;;;10.68;87.64;96214.53;5185182;28;20394;-62
2021/11/03 10:46:21;;;;;;;4.85;4.45;;;9.70;99.90;;;10.65;86.44;96216.16;5179884;28;20201;-59
2021/11/03 10:49:22;;;;;;;3.88;3.42;;;9.70;99.90;;;10.57;85.80;96221.00;5188157;28;20198;-62
2021/11/03 10:52:22;;;;;;;3.72;3.33;;;9.60;99.90;;;10.62;85.96;96222.03;5178395;28;20195;-59
2021/11/03 10:54:58;;;;;;;3.00;2.78;;;9.70;99.90;;;10.65;85.48;96219.56;5179249;28;20202;-60
2021/11/03 10:57:39;;;;;;;2.80;2.60;;;9.70;99.90;;;10.69;85.94;96220.50;5182566;28;20497;-60
2021/11/03 11:00:23;;;;;;;2.88;2.72;;;9.70;99.90;;;10.69;85.36;96220.50;5178997;28;20595;-57
2021/11/03 11:03:03;;;;;;;3.03;2.78;;;9.70;99.90;;;10.72;85.92;96218.03;5178875;28;20641;-60
2021/11/03 11:05:39;;;;;;;3.20;3.00;;;9.80;99.90;;;10.77;86.32;96219.91;5183350;28;20697;-60